Terminal Aerodrome Forecast
Issued by NWS Omaha/Valley, NE

Home | Current Version | Previous Version | Text Only | Print | Product List | Glossary Off
Versions: 1 2 3 4 5 6 7 8 9 10 11 12 13 14 15 16 17 18

000
FTUS43 KOAX 232336
TAFOFK
TAF
KOFK 232336Z 2400/2424 05015G23KT 1/2SM SN OVC008
     FM240400 01016G25KT 1 1/2SM -SN OVC008
     FM241800 34021G29KT 3SM -SN BLSN OVC015
     FM242000 34019G27KT 5SM BLSN OVC020=

USA.gov is the U.S. government's official web portal to all federal, state and local government web resources and services.